createdAt,value
2023-02-16T00:00:16.531Z,0
2023-02-16T00:01:14.113Z,0
2023-02-16T00:02:13.836Z,0
2023-02-16T00:03:13.944Z,0
2023-02-16T00:04:13.555Z,0
2023-02-16T00:05:16.296Z,0
2023-02-16T00:06:13.557Z,0
2023-02-16T00:07:13.649Z,0
2023-02-16T00:08:13.591Z,0
2023-02-16T00:09:13.552Z,0
2023-02-16T00:10:13.702Z,0
2023-02-16T00:11:17.074Z,0
2023-02-16T00:12:13.557Z,0
2023-02-16T00:13:14.512Z,0
2023-02-16T00:14:16.638Z,0
2023-02-16T00:15:13.541Z,0
2023-02-16T00:16:17.063Z,0
2023-02-16T00:17:13.561Z,0
2023-02-16T00:18:13.526Z,0
2023-02-16T00:19:13.564Z,0
2023-02-16T00:20:13.550Z,0
2023-02-16T00:21:14.820Z,0
2023-02-16T00:22:13.686Z,0
2023-02-16T00:23:13.542Z,0
2023-02-16T00:24:13.792Z,0
2023-02-16T00:25:13.528Z,0
2023-02-16T00:26:13.581Z,0
2023-02-16T00:27:16.730Z,0
2023-02-16T00:28:13.548Z,0
2023-02-16T00:29:13.533Z,0
2023-02-16T00:30:14.026Z,0
2023-02-16T00:31:17.997Z,0
2023-02-16T00:32:17.588Z,0
2023-02-16T00:33:13.536Z,0
2023-02-16T00:34:13.554Z,0
2023-02-16T00:35:16.337Z,0
2023-02-16T00:36:13.573Z,0
2023-02-16T00:37:13.581Z,0
2023-02-16T00:38:13.755Z,0
2023-02-16T00:39:13.542Z,0
2023-02-16T00:40:13.702Z,0
2023-02-16T00:41:14.022Z,0
2023-02-16T00:42:13.584Z,0
2023-02-16T00:43:16.670Z,0
2023-02-16T00:44:13.598Z,0
2023-02-16T00:45:13.553Z,0
2023-02-16T00:46:13.914Z,0
2023-02-16T00:47:13.582Z,0
2023-02-16T00:48:13.753Z,0
2023-02-16T00:49:13.580Z,0
2023-02-16T00:50:13.584Z,0
2023-02-16T00:51:33.552Z,0
2023-02-16T00:52:13.565Z,0
2023-02-16T00:53:13.570Z,0
2023-02-16T00:54:16.513Z,0
2023-02-16T00:55:13.656Z,0
2023-02-16T00:56:16.490Z,0
2023-02-16T00:57:13.652Z,0
2023-02-16T00:58:13.594Z,0
2023-02-16T00:59:13.606Z,0
2023-02-16T01:00:13.608Z,0
2023-02-16T01:01:14.302Z,0
2023-02-16T01:02:13.654Z,0
2023-02-16T01:03:13.619Z,0
2023-02-16T01:04:13.783Z,0
2023-02-16T01:05:13.624Z,0
2023-02-16T01:06:13.792Z,0
2023-02-16T01:07:13.680Z,0
2023-02-16T01:08:13.612Z,0
2023-02-16T01:09:13.604Z,0
2023-02-16T01:10:16.577Z,0
2023-02-16T01:11:14.399Z,0
2023-02-16T01:12:13.781Z,0
2023-02-16T01:13:13.602Z,0
2023-02-16T01:14:13.642Z,0
2023-02-16T01:15:13.588Z,0
2023-02-16T01:16:13.991Z,0
2023-02-16T01:17:13.900Z,0
2023-02-16T01:18:13.684Z,0
2023-02-16T01:19:13.616Z,0
2023-02-16T01:20:13.611Z,0
2023-02-16T01:21:16.775Z,0
2023-02-16T01:22:13.646Z,0
2023-02-16T01:23:13.683Z,0
2023-02-16T01:24:13.713Z,0
2023-02-16T01:25:13.639Z,0
2023-02-16T01:26:16.831Z,0
2023-02-16T01:27:13.640Z,0
2023-02-16T01:28:13.673Z,0
2023-02-16T01:29:13.814Z,0
2023-02-16T01:30:14.040Z,0
2023-02-16T01:31:15.138Z,0
2023-02-16T01:32:17.520Z,0
2023-02-16T01:33:16.397Z,0
2023-02-16T01:34:13.731Z,0
2023-02-16T01:35:13.670Z,0
2023-02-16T01:36:13.650Z,0
2023-02-16T01:37:16.767Z,0
2023-02-16T01:38:13.687Z,0
2023-02-16T01:39:13.687Z,0
2023-02-16T01:40:13.632Z,0
2023-02-16T01:41:14.106Z,0
2023-02-16T01:42:13.689Z,0
2023-02-16T01:43:16.508Z,0
2023-02-16T01:44:13.774Z,0
2023-02-16T01:45:14.059Z,0
2023-02-16T01:46:13.999Z,0
2023-02-16T01:47:13.806Z,0
2023-02-16T01:48:18.523Z,0
2023-02-16T01:49:13.662Z,0
2023-02-16T01:50:13.728Z,0
2023-02-16T01:51:14.217Z,0
2023-02-16T01:52:13.842Z,0
2023-02-16T01:53:13.652Z,0
2023-02-16T01:54:16.563Z,0
2023-02-16T01:55:13.784Z,0
2023-02-16T01:56:13.700Z,0
2023-02-16T01:57:13.771Z,0
2023-02-16T01:58:13.779Z,0
2023-02-16T01:59:16.605Z,0
2023-02-16T02:00:13.749Z,0
2023-02-16T02:01:14.267Z,0
2023-02-16T02:02:14.714Z,0
2023-02-16T02:03:13.915Z,0
2023-02-16T02:04:13.716Z,0
2023-02-16T02:05:16.782Z,0
2023-02-16T02:06:13.698Z,0
2023-02-16T02:07:13.826Z,0
2023-02-16T02:08:13.692Z,0
2023-02-16T02:09:13.723Z,0
2023-02-16T02:10:16.804Z,0
2023-02-16T02:11:14.144Z,0
2023-02-16T02:12:13.720Z,0
2023-02-16T02:13:13.963Z,0
2023-02-16T02:14:13.765Z,0
2023-02-16T02:15:13.803Z,0
2023-02-16T02:16:18.305Z,0
2023-02-16T02:17:13.737Z,0
2023-02-16T02:18:13.702Z,0
2023-02-16T02:19:13.775Z,0
2023-02-16T02:20:13.703Z,0
2023-02-16T02:21:16.802Z,0
2023-02-16T02:22:13.774Z,0
2023-02-16T02:23:13.738Z,0
2023-02-16T02:24:16.221Z,0
2023-02-16T02:25:13.720Z,0
2023-02-16T02:26:13.896Z,0
2023-02-16T02:27:16.637Z,0
2023-02-16T02:28:13.745Z,0
2023-02-16T02:29:13.790Z,0
2023-02-16T02:30:14.067Z,0
2023-02-16T02:31:15.468Z,0
2023-02-16T02:32:17.264Z,0
2023-02-16T02:33:13.750Z,0
2023-02-16T02:34:13.826Z,0
2023-02-16T02:35:13.768Z,0
2023-02-16T02:36:13.740Z,0
2023-02-16T02:37:13.974Z,0
2023-02-16T02:38:16.802Z,0
2023-02-16T02:39:13.720Z,0
2023-02-16T02:40:13.752Z,0
2023-02-16T02:41:14.141Z,0
2023-02-16T02:42:13.892Z,0
2023-02-16T02:43:16.632Z,0
2023-02-16T02:44:13.852Z,0
2023-02-16T02:45:13.840Z,0
2023-02-16T02:46:13.730Z,0
2023-02-16T02:47:13.950Z,0
2023-02-16T02:48:16.902Z,0
2023-02-16T02:49:13.803Z,0
2023-02-16T02:50:13.750Z,0
2023-02-16T02:51:14.336Z,0
2023-02-16T02:52:16.620Z,0
2023-02-16T02:53:13.781Z,0
2023-02-16T02:54:16.718Z,0
2023-02-16T02:55:13.754Z,0
2023-02-16T02:56:13.785Z,0
2023-02-16T02:57:13.822Z,0
2023-02-16T02:58:13.848Z,0
2023-02-16T02:59:16.619Z,0
2023-02-16T03:00:13.783Z,0
2023-02-16T03:01:14.701Z,0
2023-02-16T03:02:14.098Z,0
2023-02-16T03:03:13.887Z,0
2023-02-16T03:04:13.780Z,0
2023-02-16T03:05:16.567Z,0
2023-02-16T03:06:13.829Z,0
2023-02-16T03:07:13.848Z,0
2023-02-16T03:08:13.822Z,0
2023-02-16T03:09:13.948Z,0
2023-02-16T03:10:16.631Z,0
2023-02-16T03:11:14.262Z,0
2023-02-16T03:12:13.809Z,0
2023-02-16T03:13:13.838Z,0
2023-02-16T03:14:13.936Z,0
2023-02-16T03:15:13.833Z,0
2023-02-16T03:16:14.073Z,0
2023-02-16T03:17:13.899Z,0
2023-02-16T03:18:13.823Z,0
2023-02-16T03:19:13.857Z,0
2023-02-16T03:20:13.834Z,0
2023-02-16T03:21:16.927Z,0
2023-02-16T03:22:13.965Z,0
2023-02-16T03:23:13.815Z,0
2023-02-16T03:24:13.821Z,0
2023-02-16T03:25:13.831Z,0
2023-02-16T03:26:13.924Z,0
2023-02-16T03:27:16.159Z,0
2023-02-16T03:28:13.824Z,0
2023-02-16T03:29:13.824Z,0
2023-02-16T03:30:14.299Z,0
2023-02-16T03:31:15.237Z,0
2023-02-16T03:32:14.351Z,0
2023-02-16T03:33:13.867Z,0
2023-02-16T03:34:13.906Z,0
2023-02-16T03:35:13.952Z,0
2023-02-16T03:36:13.856Z,0
2023-02-16T03:37:16.893Z,0
2023-02-16T03:38:13.841Z,0
2023-02-16T03:39:13.975Z,0
2023-02-16T03:40:13.862Z,0
2023-02-16T03:41:14.313Z,0
2023-02-16T03:42:13.915Z,0
2023-02-16T03:43:13.893Z,0
2023-02-16T03:44:13.862Z,0
2023-02-16T03:45:13.851Z,0
2023-02-16T03:46:14.396Z,0
2023-02-16T03:47:13.914Z,0
2023-02-16T03:48:17.622Z,0
2023-02-16T03:49:13.866Z,0
2023-02-16T03:50:13.897Z,0
2023-02-16T03:51:14.335Z,0
2023-02-16T03:52:13.871Z,0
2023-02-16T03:53:18.772Z,0
2023-02-16T03:54:13.906Z,0
2023-02-16T03:55:13.868Z,0
2023-02-16T03:56:13.866Z,0
2023-02-16T03:57:13.853Z,0
2023-02-16T03:58:13.938Z,0
2023-02-16T03:59:16.694Z,0
2023-02-16T04:00:13.885Z,0
2023-02-16T04:01:14.301Z,0
2023-02-16T04:02:14.425Z,0
2023-02-16T04:03:13.903Z,0
2023-02-16T04:04:14.416Z,0
2023-02-16T04:05:13.884Z,0
2023-02-16T04:06:13.854Z,0
2023-02-16T04:07:13.959Z,0
2023-02-16T04:08:13.937Z,0
2023-02-16T04:09:14.927Z,0
2023-02-16T04:10:16.956Z,0
2023-02-16T04:11:14.348Z,0
2023-02-16T04:12:13.914Z,0
2023-02-16T04:13:13.858Z,0
2023-02-16T04:14:13.953Z,0
2023-02-16T04:15:16.788Z,0
2023-02-16T04:16:14.074Z,0
2023-02-16T04:17:13.986Z,0
2023-02-16T04:18:13.962Z,0
2023-02-16T04:19:13.869Z,0
2023-02-16T04:20:13.891Z,0
2023-02-16T04:21:17.069Z,0
2023-02-16T04:22:13.969Z,0
2023-02-16T04:23:13.975Z,0
2023-02-16T04:24:13.948Z,0
2023-02-16T04:25:13.910Z,0
2023-02-16T04:26:17.001Z,0
2023-02-16T04:27:13.923Z,0
2023-02-16T04:28:13.898Z,0
2023-02-16T04:29:13.940Z,0
2023-02-16T04:30:14.193Z,0
2023-02-16T04:31:15.544Z,0
2023-02-16T04:32:17.572Z,0
2023-02-16T04:33:13.934Z,0
2023-02-16T04:34:13.993Z,0
2023-02-16T04:35:13.943Z,0
2023-02-16T04:36:13.968Z,0
2023-02-16T04:37:16.994Z,0
2023-02-16T04:38:13.915Z,0
2023-02-16T04:39:14.012Z,0
2023-02-16T04:40:14.016Z,0
2023-02-16T04:41:14.345Z,0
2023-02-16T04:42:14.007Z,0
2023-02-16T04:43:17.182Z,0
2023-02-16T04:44:13.977Z,0
2023-02-16T04:45:14.001Z,0
2023-02-16T04:46:14.244Z,0
2023-02-16T04:47:13.954Z,0
2023-02-16T04:48:17.021Z,0
2023-02-16T04:49:13.957Z,0
2023-02-16T04:50:13.988Z,0
2023-02-16T04:51:14.458Z,0
2023-02-16T04:52:13.957Z,0
2023-02-16T04:53:13.953Z,0
2023-02-16T04:54:16.952Z,0
2023-02-16T04:55:14.085Z,0
2023-02-16T04:56:13.998Z,0
2023-02-16T04:57:14.023Z,0
2023-02-16T04:58:13.937Z,0
2023-02-16T04:59:17.248Z,0
2023-02-16T05:00:14.148Z,0
2023-02-16T05:01:15.280Z,0
2023-02-16T05:02:14.022Z,0
2023-02-16T05:03:14.074Z,0
2023-02-16T05:04:14.384Z,0
2023-02-16T05:05:17.068Z,0
2023-02-16T05:06:14.062Z,0
2023-02-16T05:07:14.005Z,0
2023-02-16T05:08:13.979Z,0
2023-02-16T05:09:13.998Z,0
2023-02-16T05:10:17.202Z,0
2023-02-16T05:11:14.359Z,0
2023-02-16T05:12:14.026Z,0
2023-02-16T05:13:13.986Z,0
2023-02-16T05:14:13.974Z,0
2023-02-16T05:15:16.985Z,0
2023-02-16T05:16:17.416Z,0
2023-02-16T05:17:14.057Z,0
2023-02-16T05:18:13.984Z,0
2023-02-16T05:19:14.001Z,0
2023-02-16T05:20:14.081Z,0
2023-02-16T05:21:17.874Z,0
2023-02-16T05:22:14.033Z,0
2023-02-16T05:23:16.469Z,0
2023-02-16T05:24:13.994Z,0
2023-02-16T05:25:14.000Z,0
2023-02-16T05:26:17.120Z,0
2023-02-16T05:27:14.127Z,0
2023-02-16T05:28:14.420Z,0
2023-02-16T05:29:14.014Z,0
2023-02-16T05:30:14.324Z,0
2023-02-16T05:31:15.664Z,0
2023-02-16T05:32:17.537Z,0
2023-02-16T05:33:13.995Z,0
2023-02-16T05:34:14.070Z,0
2023-02-16T05:35:14.009Z,0
2023-02-16T05:36:14.007Z,0
2023-02-16T05:37:15.644Z,0
2023-02-16T05:38:14.006Z,0
2023-02-16T05:39:14.076Z,0
2023-02-16T05:40:14.096Z,0
2023-02-16T05:41:14.594Z,0
2023-02-16T05:42:14.276Z,0
2023-02-16T05:43:14.045Z,0
2023-02-16T05:44:14.022Z,0
2023-02-16T05:45:14.185Z,0
2023-02-16T05:46:14.483Z,0
2023-02-16T05:47:14.042Z,0
2023-02-16T05:48:16.910Z,0
2023-02-16T05:49:14.028Z,0
2023-02-16T05:50:14.235Z,0
2023-02-16T05:51:14.497Z,0
2023-02-16T05:52:14.105Z,0
2023-02-16T05:53:14.375Z,0
2023-02-16T05:54:14.190Z,0
2023-02-16T05:55:14.087Z,0
2023-02-16T05:56:16.529Z,0
2023-02-16T05:57:14.116Z,0
2023-02-16T05:58:14.138Z,0
2023-02-16T05:59:14.099Z,0
2023-02-16T06:00:14.052Z,0
2023-02-16T06:01:14.643Z,0
2023-02-16T06:02:14.117Z,0
2023-02-16T06:03:14.057Z,0
2023-02-16T06:04:17.374Z,0
2023-02-16T06:05:14.144Z,0
2023-02-16T06:06:14.120Z,0
2023-02-16T06:07:16.989Z,0
2023-02-16T06:08:14.075Z,0
2023-02-16T06:09:14.336Z,0
2023-02-16T06:10:14.135Z,0
2023-02-16T06:11:14.536Z,0
2023-02-16T06:12:15.151Z,0
2023-02-16T06:13:14.081Z,0
2023-02-16T06:14:14.562Z,0
2023-02-16T06:15:17.175Z,0
2023-02-16T06:16:14.547Z,0
2023-02-16T06:17:14.167Z,0
2023-02-16T06:18:14.100Z,0
2023-02-16T06:19:14.084Z,0
2023-02-16T06:20:17.206Z,0
2023-02-16T06:21:14.479Z,0
2023-02-16T06:22:14.174Z,0
2023-02-16T06:23:14.082Z,0
2023-02-16T06:24:14.160Z,0
2023-02-16T06:25:14.205Z,0
2023-02-16T06:26:16.943Z,0
2023-02-16T06:27:14.296Z,0
2023-02-16T06:28:14.085Z,0
2023-02-16T06:29:14.146Z,0
2023-02-16T06:30:14.445Z,0
2023-02-16T06:31:18.019Z,0
2023-02-16T06:32:14.921Z,0
2023-02-16T06:33:14.119Z,0
2023-02-16T06:34:14.157Z,0
2023-02-16T06:35:14.164Z,0
2023-02-16T06:36:14.177Z,0
2023-02-16T06:37:20.327Z,0
2023-02-16T06:38:14.168Z,0
2023-02-16T06:39:14.113Z,0
2023-02-16T06:40:14.137Z,0
2023-02-16T06:41:14.561Z,0
2023-02-16T06:42:17.236Z,0
2023-02-16T06:43:14.136Z,0
2023-02-16T06:44:14.236Z,0
2023-02-16T06:45:13.987Z,0
2023-02-16T06:46:14.341Z,0
2023-02-16T06:50:14.181Z,0
2023-02-16T06:51:14.658Z,0
2023-02-16T06:52:14.146Z,0
2023-02-16T06:53:16.877Z,0
2023-02-16T06:54:14.269Z,0
2023-02-16T06:55:14.177Z,0
2023-02-16T06:56:14.129Z,0
2023-02-16T06:57:14.190Z,0
2023-02-16T06:58:14.227Z,0
2023-02-16T06:59:16.963Z,0
2023-02-16T07:00:14.299Z,5
2023-02-16T07:01:15.187Z,5
2023-02-16T07:02:14.230Z,5
2023-02-16T07:03:14.461Z,5
2023-02-16T07:04:17.235Z,5
2023-02-16T07:05:17.177Z,5
2023-02-16T07:06:14.236Z,5
2023-02-16T07:07:17.212Z,5
2023-02-16T07:08:14.282Z,5
2023-02-16T07:09:16.195Z,5
2023-02-16T07:14:30.982Z,5
2023-02-16T07:15:17.245Z,5
2023-02-16T07:16:14.605Z,5
2023-02-16T07:17:14.213Z,5
2023-02-16T07:18:14.240Z,5
2023-02-16T07:19:14.319Z,10
2023-02-16T07:20:14.264Z,10
2023-02-16T07:21:17.543Z,10
2023-02-16T07:22:14.207Z,15
2023-02-16T07:23:14.287Z,15
2023-02-16T07:24:14.179Z,15
2023-02-16T07:25:14.325Z,15
2023-02-16T07:26:17.306Z,15
2023-02-16T07:27:14.200Z,15
2023-02-16T07:28:14.207Z,15
2023-02-16T07:29:14.221Z,15
2023-02-16T07:30:14.619Z,20
2023-02-16T07:31:15.825Z,20
2023-02-16T07:32:17.829Z,15
2023-02-16T07:33:14.224Z,20
2023-02-16T07:34:14.273Z,20
2023-02-16T07:35:14.333Z,25
2023-02-16T07:36:14.265Z,25
2023-02-16T07:37:17.030Z,30
2023-02-16T07:38:14.211Z,30
2023-02-16T07:39:14.192Z,30
2023-02-16T07:40:14.240Z,30
2023-02-16T07:41:18.864Z,30
2023-02-16T07:42:17.350Z,30
2023-02-16T07:43:17.013Z,25
2023-02-16T07:44:14.273Z,25
2023-02-16T07:45:14.347Z,25
2023-02-16T07:46:14.809Z,25
2023-02-16T07:47:14.213Z,30
2023-02-16T07:48:17.136Z,25
2023-02-16T07:49:14.211Z,30
2023-02-16T07:50:14.280Z,30
2023-02-16T07:51:15.161Z,25
2023-02-16T07:52:14.246Z,25
2023-02-16T07:53:19.776Z,20
2023-02-16T07:54:14.277Z,20
2023-02-16T07:55:14.280Z,20
2023-02-16T07:56:14.230Z,25
2023-02-16T07:57:14.285Z,35
2023-02-16T07:58:14.231Z,35
2023-02-16T07:59:17.035Z,35
2023-02-16T08:00:14.271Z,35
2023-02-16T08:01:18.061Z,30
2023-02-16T08:02:14.987Z,30
2023-02-16T08:03:14.929Z,35
2023-02-16T08:04:17.259Z,40
2023-02-16T08:05:14.301Z,35
2023-02-16T08:06:14.406Z,50
2023-02-16T08:07:14.238Z,50
2023-02-16T08:08:13.853Z,45
2023-02-16T08:09:14.292Z,50
2023-02-16T08:10:14.296Z,50
2023-02-16T08:11:14.331Z,45
2023-02-16T08:12:14.302Z,40
2023-02-16T08:13:14.315Z,45
2023-02-16T08:14:14.273Z,50
2023-02-16T08:15:17.844Z,50
2023-02-16T08:16:15.141Z,50
2023-02-16T08:17:15.002Z,50
2023-02-16T08:18:14.326Z,55
2023-02-16T08:19:14.295Z,60
2023-02-16T08:20:14.344Z,65
2023-02-16T08:21:14.528Z,70
2023-02-16T08:22:14.623Z,70
2023-02-16T08:23:14.305Z,75
2023-02-16T08:24:14.294Z,75
2023-02-16T08:25:16.139Z,70
2023-02-16T08:26:17.964Z,70
2023-02-16T08:27:14.295Z,75
2023-02-16T08:28:14.325Z,70
2023-02-16T08:29:14.419Z,75
2023-02-16T08:30:14.645Z,75
2023-02-16T08:31:17.372Z,75
2023-02-16T08:32:14.868Z,75
2023-02-16T08:33:14.344Z,75
2023-02-16T08:34:14.344Z,75
2023-02-16T08:35:14.339Z,75
2023-02-16T08:36:14.760Z,80
2023-02-16T08:37:14.301Z,80
2023-02-16T08:38:14.371Z,70
2023-02-16T08:39:14.368Z,70
2023-02-16T08:40:15.358Z,70
2023-02-16T08:41:14.311Z,65
2023-02-16T08:42:14.534Z,65
2023-02-16T08:43:14.467Z,65
2023-02-16T08:44:14.388Z,70
2023-02-16T08:45:14.366Z,65
2023-02-16T08:46:15.758Z,65
2023-02-16T08:47:17.345Z,55
2023-02-16T08:48:14.314Z,50
2023-02-16T08:49:14.349Z,55
2023-02-16T08:50:14.397Z,60
2023-02-16T08:51:14.325Z,60
2023-02-16T08:52:14.303Z,60
2023-02-16T08:53:17.414Z,50
2023-02-16T08:54:15.281Z,55
2023-02-16T08:55:14.344Z,55
2023-02-16T08:56:14.835Z,55
2023-02-16T08:57:14.381Z,60
2023-02-16T08:58:17.186Z,65
2023-02-16T08:59:14.339Z,65
2023-02-16T09:00:14.368Z,70
2023-02-16T09:01:14.643Z,70
2023-02-16T09:02:14.689Z,70
2023-02-16T09:03:14.354Z,75
2023-02-16T09:04:17.666Z,75
2023-02-16T09:05:14.342Z,70
2023-02-16T09:06:17.399Z,70
2023-02-16T09:07:14.372Z,70
2023-02-16T09:08:14.337Z,70
2023-02-16T09:09:17.484Z,75
2023-02-16T09:10:14.528Z,70
2023-02-16T09:11:14.824Z,75
2023-02-16T09:12:14.348Z,70
2023-02-16T09:13:14.334Z,70
2023-02-16T09:14:14.404Z,75
2023-02-16T09:15:17.836Z,70
2023-02-16T09:16:14.975Z,70
2023-02-16T09:17:14.683Z,75
2023-02-16T09:18:16.984Z,75
2023-02-16T09:19:14.044Z,75
2023-02-16T09:20:17.156Z,75
2023-02-16T09:21:14.358Z,75
2023-02-16T09:22:14.414Z,75
2023-02-16T09:23:14.396Z,75
2023-02-16T09:24:14.322Z,75
2023-02-16T09:25:14.481Z,75
2023-02-16T09:26:18.135Z,75
2023-02-16T09:27:14.374Z,75
2023-02-16T09:28:14.374Z,75
2023-02-16T09:29:14.429Z,75
2023-02-16T09:30:14.705Z,75
2023-02-16T09:31:18.227Z,75
2023-02-16T09:32:14.391Z,75
2023-02-16T09:33:14.558Z,75
2023-02-16T09:34:14.391Z,75
2023-02-16T09:35:14.419Z,75
2023-02-16T09:36:14.978Z,75
2023-02-16T09:37:17.399Z,75
2023-02-16T09:38:14.420Z,75
2023-02-16T09:39:14.402Z,75
2023-02-16T09:40:14.389Z,75
2023-02-16T09:41:16.347Z,75
2023-02-16T09:42:17.590Z,75
2023-02-16T09:43:14.376Z,75
2023-02-16T09:44:14.351Z,75
2023-02-16T09:45:14.488Z,75
2023-02-16T09:46:15.461Z,75
2023-02-16T09:47:14.421Z,75
2023-02-16T09:48:17.414Z,75
2023-02-16T09:49:14.433Z,75
2023-02-16T09:50:14.403Z,75
2023-02-16T09:51:14.643Z,75
2023-02-16T09:52:14.449Z,75
2023-02-16T09:53:17.254Z,75
2023-02-16T09:54:14.413Z,75
2023-02-16T09:55:14.392Z,75
2023-02-16T09:56:14.832Z,75
2023-02-16T09:57:14.433Z,75
2023-02-16T09:58:14.431Z,75
2023-02-16T09:59:19.179Z,75
2023-02-16T10:00:14.428Z,75
2023-02-16T10:01:14.781Z,75
2023-02-16T10:02:14.692Z,75
2023-02-16T10:03:14.450Z,75
2023-02-16T10:04:17.429Z,75
2023-02-16T10:05:14.441Z,75
2023-02-16T10:06:15.037Z,75
2023-02-16T10:07:14.407Z,75
2023-02-16T10:08:14.625Z,75
2023-02-16T10:09:14.567Z,75
2023-02-16T10:10:17.434Z,75
2023-02-16T10:11:14.829Z,75
2023-02-16T10:12:14.453Z,75
2023-02-16T10:13:14.373Z,80
2023-02-16T10:14:14.567Z,75
2023-02-16T10:15:17.583Z,75
2023-02-16T10:16:14.774Z,75
2023-02-16T10:17:14.457Z,75
2023-02-16T10:18:14.462Z,75
2023-02-16T10:19:14.546Z,75
2023-02-16T10:20:17.566Z,75
2023-02-16T10:21:14.924Z,75
2023-02-16T10:22:16.465Z,75
2023-02-16T10:23:14.486Z,75
2023-02-16T10:24:14.502Z,75
2023-02-16T10:25:14.428Z,75
2023-02-16T10:26:17.382Z,75
2023-02-16T10:27:14.457Z,75
2023-02-16T10:28:14.484Z,75
2023-02-16T10:29:14.503Z,75
2023-02-16T10:30:14.680Z,75
2023-02-16T10:31:16.863Z,80
2023-02-16T10:32:14.662Z,75
2023-02-16T10:33:14.478Z,75
2023-02-16T10:34:17.465Z,75
2023-02-16T10:35:14.456Z,75
2023-02-16T10:36:14.707Z,75
2023-02-16T10:37:14.545Z,80
2023-02-16T10:38:14.478Z,80
2023-02-16T10:39:14.553Z,80
2023-02-16T10:40:14.599Z,80
2023-02-16T10:41:14.929Z,80
2023-02-16T10:42:17.589Z,80
2023-02-16T10:43:14.522Z,75
2023-02-16T10:44:14.589Z,75
2023-02-16T10:45:15.554Z,75
2023-02-16T10:46:14.955Z,75
2023-02-16T10:47:14.538Z,75
2023-02-16T10:48:14.468Z,75
2023-02-16T10:49:14.409Z,75
2023-02-16T10:50:14.515Z,75
2023-02-16T10:51:14.873Z,75
2023-02-16T10:52:14.659Z,75
2023-02-16T10:53:18.610Z,75
2023-02-16T10:54:14.537Z,75
2023-02-16T10:55:14.480Z,75
2023-02-16T10:56:14.616Z,75
2023-02-16T10:57:14.562Z,75
2023-02-16T10:58:17.650Z,75
2023-02-16T10:59:14.540Z,70
2023-02-16T11:00:14.597Z,70
2023-02-16T11:01:15.239Z,65
2023-02-16T11:02:14.623Z,65
2023-02-16T11:03:14.542Z,65
2023-02-16T11:04:14.829Z,65
2023-02-16T11:05:14.496Z,70
2023-02-16T11:06:15.004Z,70
2023-02-16T11:07:14.630Z,70
2023-02-16T11:08:14.574Z,70
2023-02-16T11:09:17.301Z,70
2023-02-16T11:10:14.637Z,70
2023-02-16T11:11:14.916Z,65
2023-02-16T11:12:14.595Z,65
2023-02-16T11:13:14.554Z,65
2023-02-16T11:14:18.371Z,65
2023-02-16T11:15:14.578Z,65
2023-02-16T11:16:14.890Z,60
2023-02-16T11:17:14.581Z,60
2023-02-16T11:18:14.562Z,60
2023-02-16T11:19:14.571Z,60
2023-02-16T11:20:17.923Z,60
2023-02-16T11:21:15.025Z,60
2023-02-16T11:22:14.601Z,60
2023-02-16T11:23:14.570Z,60
2023-02-16T11:24:14.579Z,60
2023-02-16T11:25:18.222Z,65
2023-02-16T11:26:14.735Z,65
2023-02-16T11:27:14.584Z,60
2023-02-16T11:28:14.674Z,65
2023-02-16T11:29:14.399Z,60
2023-02-16T11:30:14.941Z,60
2023-02-16T11:31:19.081Z,60
2023-02-16T11:32:14.954Z,60
2023-02-16T11:33:14.683Z,45
2023-02-16T11:34:15.439Z,50
2023-02-16T11:35:14.498Z,50
2023-02-16T11:36:15.759Z,50
2023-02-16T11:37:14.586Z,50
2023-02-16T11:38:14.577Z,50
2023-02-16T11:39:15.793Z,50
2023-02-16T11:40:14.511Z,50
2023-02-16T11:41:15.188Z,55
2023-02-16T11:42:17.714Z,55
2023-02-16T11:43:14.578Z,55
2023-02-16T11:44:17.463Z,45
2023-02-16T11:45:14.586Z,40
2023-02-16T11:46:15.314Z,45
2023-02-16T11:47:17.508Z,45
2023-02-16T11:48:14.433Z,45
2023-02-16T11:49:14.614Z,45
2023-02-16T11:50:18.284Z,45
2023-02-16T11:51:27.807Z,40
2023-02-16T11:52:16.112Z,45
2023-02-16T11:53:18.338Z,40
2023-02-16T11:54:14.605Z,40
2023-02-16T11:55:14.639Z,40
2023-02-16T11:56:15.296Z,40
2023-02-16T11:57:16.682Z,40
2023-02-16T11:58:17.689Z,40
2023-02-16T11:59:14.588Z,40
2023-02-16T12:00:14.680Z,35
2023-02-16T12:01:14.959Z,35
2023-02-16T12:02:14.637Z,35
2023-02-16T12:03:14.746Z,35
2023-02-16T12:04:18.064Z,35
2023-02-16T12:05:14.972Z,35
2023-02-16T12:06:14.672Z,40
2023-02-16T12:07:14.627Z,40
2023-02-16T12:08:14.668Z,40
2023-02-16T12:09:17.728Z,40
2023-02-16T12:10:15.012Z,35
2023-02-16T12:11:15.149Z,35
2023-02-16T12:12:14.740Z,35
2023-02-16T12:13:14.718Z,40
2023-02-16T12:14:14.685Z,35
2023-02-16T12:15:15.753Z,35
2023-02-16T12:16:18.383Z,35
2023-02-16T12:17:14.666Z,35
2023-02-16T12:18:14.724Z,35
2023-02-16T12:19:14.701Z,35
2023-02-16T12:20:17.741Z,35
2023-02-16T12:21:16.080Z,40
2023-02-16T12:22:14.721Z,40
2023-02-16T12:23:14.672Z,40
2023-02-16T12:24:16.284Z,40
2023-02-16T12:25:14.910Z,40
2023-02-16T12:26:18.391Z,40
2023-02-16T12:27:14.671Z,40
2023-02-16T12:28:17.104Z,40
2023-02-16T12:29:14.840Z,40
2023-02-16T12:30:14.963Z,40
2023-02-16T12:31:18.324Z,40
2023-02-16T12:32:17.862Z,35
2023-02-16T12:33:14.676Z,35
2023-02-16T12:34:14.700Z,35
2023-02-16T12:35:14.679Z,35
2023-02-16T12:36:15.222Z,35
2023-02-16T12:37:17.477Z,35
2023-02-16T12:38:14.709Z,35
2023-02-16T12:39:14.672Z,35
2023-02-16T12:40:14.674Z,35
2023-02-16T12:41:14.684Z,35
2023-02-16T12:42:17.841Z,35
2023-02-16T12:43:14.675Z,35
2023-02-16T12:44:14.688Z,35
2023-02-16T12:45:14.680Z,35
2023-02-16T12:46:15.672Z,35
2023-02-16T12:47:15.820Z,35
2023-02-16T12:48:14.709Z,35
2023-02-16T12:49:14.690Z,35
2023-02-16T12:50:14.807Z,35
2023-02-16T12:51:15.256Z,35
2023-02-16T12:52:14.134Z,35
2023-02-16T12:53:17.497Z,35
2023-02-16T12:54:14.704Z,35
2023-02-16T12:55:14.716Z,35
2023-02-16T12:56:14.968Z,35
2023-02-16T12:57:14.710Z,35
2023-02-16T12:58:17.629Z,35
2023-02-16T12:59:14.722Z,35
2023-02-16T13:00:14.736Z,30
2023-02-16T13:01:15.538Z,30
2023-02-16T13:02:14.262Z,30
2023-02-16T13:03:14.469Z,30
2023-02-16T13:04:14.342Z,30
2023-02-16T13:05:14.236Z,30
2023-02-16T13:06:15.294Z,30
2023-02-16T13:07:14.972Z,30
2023-02-16T13:08:14.584Z,30
2023-02-16T13:09:18.061Z,30
2023-02-16T13:10:15.271Z,30
2023-02-16T13:11:16.228Z,30
2023-02-16T13:12:15.394Z,30
2023-02-16T13:13:16.768Z,30
2023-02-16T13:14:17.597Z,30
2023-02-16T13:15:15.388Z,30
2023-02-16T13:16:38.835Z,30
2023-02-16T13:17:15.691Z,30
2023-02-16T13:18:15.252Z,35
2023-02-16T13:19:15.222Z,35
2023-02-16T13:20:21.253Z,30
2023-02-16T13:21:21.259Z,25
2023-02-16T13:22:15.741Z,25
2023-02-16T13:23:15.756Z,20
2023-02-16T13:24:18.387Z,20
2023-02-16T13:25:22.180Z,20
2023-02-16T13:26:16.708Z,20
2023-02-16T13:27:14.682Z,20
2023-02-16T13:28:14.981Z,20
2023-02-16T13:29:16.130Z,20
2023-02-16T13:30:15.308Z,20
2023-02-16T13:31:18.518Z,30
2023-02-16T13:32:17.343Z,25
2023-02-16T13:33:15.201Z,30
2023-02-16T13:34:15.393Z,30
2023-02-16T13:35:15.300Z,25
2023-02-16T13:36:18.992Z,25
2023-02-16T13:37:14.855Z,20
2023-02-16T13:38:14.792Z,20
2023-02-16T13:39:14.859Z,20
2023-02-16T13:40:14.932Z,25
2023-02-16T13:41:17.874Z,20
2023-02-16T13:42:14.634Z,20
2023-02-16T13:43:14.857Z,25
2023-02-16T13:44:14.194Z,25
2023-02-16T13:45:14.813Z,25
2023-02-16T13:46:16.224Z,25
2023-02-16T13:47:21.061Z,30
2023-02-16T13:48:14.821Z,20
2023-02-16T13:49:14.801Z,15
2023-02-16T13:50:14.883Z,15
2023-02-16T13:51:15.263Z,15
2023-02-16T13:52:17.810Z,15
2023-02-16T13:53:14.908Z,25
2023-02-16T13:54:14.788Z,25
2023-02-16T13:55:14.807Z,20
2023-02-16T13:56:15.118Z,30
2023-02-16T13:57:14.760Z,30
2023-02-16T13:58:18.340Z,35
2023-02-16T13:59:14.692Z,35
2023-02-16T14:00:15.195Z,30
2023-02-16T14:01:15.311Z,30
2023-02-16T14:02:14.602Z,20
2023-02-16T14:03:19.150Z,20
2023-02-16T14:04:14.820Z,15
2023-02-16T14:05:14.903Z,15
2023-02-16T14:06:14.845Z,15
2023-02-16T14:07:14.836Z,20
2023-02-16T14:08:17.253Z,25
2023-02-16T14:09:17.610Z,20
2023-02-16T14:10:14.870Z,25
2023-02-16T14:11:14.926Z,20
2023-02-16T14:12:15.561Z,30
2023-02-16T14:13:15.367Z,35
2023-02-16T14:14:18.256Z,30
2023-02-16T14:15:21.447Z,30
2023-02-16T14:16:15.974Z,30
2023-02-16T14:17:15.212Z,35
2023-02-16T14:18:15.434Z,35
2023-02-16T14:19:17.999Z,35
2023-02-16T14:20:18.399Z,30
2023-02-16T14:21:15.898Z,20
2023-02-16T14:22:15.719Z,35
2023-02-16T14:23:15.296Z,20
2023-02-16T14:24:14.942Z,20
2023-02-16T14:25:17.958Z,10
2023-02-16T14:26:15.396Z,10
2023-02-16T14:27:14.944Z,10
2023-02-16T14:28:14.900Z,10
2023-02-16T14:29:14.931Z,10
2023-02-16T14:30:15.178Z,10
2023-02-16T14:31:19.497Z,15
2023-02-16T14:32:15.203Z,15
2023-02-16T14:33:14.880Z,15
2023-02-16T14:34:14.898Z,15
2023-02-16T14:35:14.869Z,15
2023-02-16T14:36:17.955Z,15
2023-02-16T14:37:14.903Z,20
2023-02-16T14:38:14.991Z,25